createdAt,value
2018-06-23T00:01:26.736Z,5.40
2018-06-23T00:04:30.396Z,4.60
2018-06-23T00:07:34.059Z,4.80
2018-06-23T00:10:37.909Z,5.17
2018-06-23T00:13:41.525Z,4.60
2018-06-23T00:16:45.697Z,4.73
2018-06-23T00:19:49.404Z,4.90
2018-06-23T00:22:53.144Z,5.07
2018-06-23T00:26:01.875Z,4.87
2018-06-23T00:29:05.785Z,5.70
2018-06-23T00:32:09.455Z,5.23
2018-06-23T00:35:13.060Z,4.33
2018-06-23T00:38:16.756Z,4.23
2018-06-23T00:41:20.353Z,4.90
2018-06-23T00:44:23.891Z,4.77
2018-06-23T00:47:27.480Z,4.80
2018-06-23T00:50:31.141Z,4.93
2018-06-23T00:53:34.972Z,4.93
2018-06-23T00:56:38.537Z,4.73
2018-06-23T00:59:43.956Z,4.60
2018-06-23T01:02:47.608Z,4.80
2018-06-23T01:05:51.255Z,5.10
2018-06-23T01:08:54.950Z,4.97
2018-06-23T01:11:58.571Z,3.87
2018-06-23T01:15:02.291Z,4.70
2018-06-23T01:18:06.094Z,5.33
2018-06-23T01:21:09.693Z,5.20
2018-06-23T01:24:13.236Z,6.47
2018-06-23T01:27:16.981Z,4.80
2018-06-23T01:30:20.598Z,4.60
2018-06-23T01:33:24.285Z,4.20
2018-06-23T01:36:27.848Z,4.60
2018-06-23T01:39:31.454Z,5.13
2018-06-23T01:42:35.091Z,4.43
2018-06-23T01:45:38.760Z,5.13
2018-06-23T01:48:42.462Z,4.60
2018-06-23T01:51:46.180Z,4.70
2018-06-23T01:54:49.746Z,4.70
2018-06-23T01:57:53.425Z,4.77
2018-06-23T02:00:57.152Z,5.00
2018-06-23T02:04:00.943Z,4.40
2018-06-23T02:07:04.783Z,4.63
2018-06-23T02:10:08.411Z,4.03
2018-06-23T02:13:12.098Z,5.70
2018-06-23T02:16:20.950Z,4.50
2018-06-23T02:20:31.563Z,4.40
2018-06-23T02:23:40.382Z,4.73
2018-06-23T02:26:49.127Z,4.57
2018-06-23T02:29:58.039Z,4.60
2018-06-23T02:34:07.639Z,4.77
2018-06-23T02:37:11.349Z,5.10
2018-06-23T02:40:14.982Z,4.30
2018-06-23T02:43:18.567Z,5.20
2018-06-23T02:46:22.288Z,6.60
2018-06-23T02:49:25.900Z,5.10
2018-06-23T02:52:30.806Z,4.80
2018-06-23T02:55:34.383Z,5.33
2018-06-23T02:58:38.093Z,5.70
2018-06-23T03:01:41.785Z,5.43
2018-06-23T03:04:45.503Z,4.50
2018-06-23T03:07:49.167Z,5.27
2018-06-23T03:10:52.899Z,4.70
2018-06-23T03:13:56.470Z,4.80
2018-06-23T03:17:00.070Z,5.60
2018-06-23T03:20:03.837Z,5.47
2018-06-23T03:23:07.434Z,5.00
2018-06-23T03:26:11.228Z,5.37
2018-06-23T03:29:14.929Z,5.00
2018-06-23T03:32:18.569Z,4.90
2018-06-23T03:35:22.192Z,4.90
2018-06-23T03:38:26.047Z,4.77
2018-06-23T03:41:29.693Z,5.50
2018-06-23T03:44:33.431Z,4.30
2018-06-23T03:47:37.188Z,5.13
2018-06-23T03:50:40.979Z,6.13
2018-06-23T03:53:44.583Z,4.53
2018-06-23T03:56:48.365Z,6.10
2018-06-23T03:59:51.985Z,4.90
2018-06-23T04:02:55.823Z,6.00
2018-06-23T04:05:59.489Z,5.00
2018-06-23T04:09:03.157Z,5.03
2018-06-23T04:12:06.913Z,5.10
2018-06-23T04:15:10.661Z,5.87
2018-06-23T04:18:14.276Z,5.60
2018-06-23T04:21:17.944Z,4.47
2018-06-23T04:24:21.566Z,4.60
2018-06-23T04:27:25.222Z,4.60
2018-06-23T04:30:28.943Z,4.50
2018-06-23T04:33:32.524Z,4.83
2018-06-23T04:36:36.299Z,4.10
2018-06-23T04:39:39.989Z,4.10
2018-06-23T04:42:43.759Z,4.33
2018-06-23T04:45:47.360Z,4.23
2018-06-23T04:48:51.147Z,5.40
2018-06-23T04:51:54.794Z,4.97
2018-06-23T04:54:58.468Z,4.90
2018-06-23T04:58:02.109Z,5.40
2018-06-23T05:01:05.810Z,5.13
2018-06-23T05:04:09.493Z,4.90
2018-06-23T05:07:13.089Z,5.60
2018-06-23T05:10:16.743Z,5.17
2018-06-23T05:13:20.348Z,5.53
2018-06-23T05:16:23.946Z,5.60
2018-06-23T05:19:27.573Z,5.83
2018-06-23T05:22:31.225Z,5.10
2018-06-23T05:25:34.914Z,5.30
2018-06-23T05:28:38.658Z,5.80
2018-06-23T05:31:42.428Z,5.67
2018-06-23T05:34:46.085Z,5.63
2018-06-23T05:37:50.702Z,5.60
2018-06-23T05:40:54.322Z,5.73
2018-06-23T05:43:58.064Z,6.07
2018-06-23T05:47:01.803Z,5.67
2018-06-23T05:50:05.515Z,5.70
2018-06-23T05:53:09.348Z,6.00
2018-06-23T05:56:13.081Z,5.07
2018-06-23T05:59:16.733Z,4.60
2018-06-23T06:02:20.310Z,5.00
2018-06-23T06:05:24.068Z,4.13
2018-06-23T06:08:27.829Z,4.60
2018-06-23T06:11:33.359Z,4.83
2018-06-23T06:14:43.683Z,5.80
2018-06-23T06:17:47.280Z,4.10
2018-06-23T06:20:50.996Z,4.20
2018-06-23T06:23:54.754Z,4.07
2018-06-23T06:26:58.399Z,4.57
2018-06-23T06:30:02.047Z,4.53
2018-06-23T06:33:05.765Z,4.33
2018-06-23T06:36:09.305Z,4.50
2018-06-23T06:39:12.845Z,4.20
2018-06-23T06:42:16.801Z,5.27
2018-06-23T06:45:20.434Z,4.30
2018-06-23T06:48:24.110Z,3.97
2018-06-23T06:51:27.775Z,4.37
2018-06-23T06:54:31.489Z,4.53
2018-06-23T06:57:35.229Z,4.67
2018-06-23T07:00:38.875Z,5.30
2018-06-23T07:03:42.545Z,5.60
2018-06-23T07:06:46.197Z,5.87
2018-06-23T07:09:49.886Z,5.67
2018-06-23T07:12:53.533Z,5.70
2018-06-23T07:15:57.287Z,6.10
2018-06-23T07:19:01.115Z,6.60
2018-06-23T07:22:04.791Z,6.20
2018-06-23T07:25:08.582Z,6.17
2018-06-23T07:28:12.228Z,6.07
2018-06-23T07:31:16.001Z,6.10
2018-06-23T07:34:19.892Z,7.27
2018-06-23T07:37:23.596Z,6.23
2018-06-23T07:40:27.243Z,5.80
2018-06-23T07:43:30.879Z,5.17
2018-06-23T07:46:35.186Z,5.97
2018-06-23T07:49:38.941Z,5.67
2018-06-23T07:52:42.530Z,5.47
2018-06-23T07:55:46.267Z,5.43
2018-06-23T07:58:50.010Z,5.57
2018-06-23T08:01:54.185Z,6.07
2018-06-23T08:04:57.973Z,4.73
2018-06-23T08:08:01.863Z,6.00
2018-06-23T08:11:05.506Z,5.07
2018-06-23T08:14:09.170Z,5.07
2018-06-23T08:17:13.143Z,4.50
2018-06-23T08:20:16.875Z,4.30
2018-06-23T08:23:20.756Z,4.43
2018-06-23T08:26:24.694Z,5.30
2018-06-23T08:29:28.250Z,4.50
2018-06-23T08:32:31.922Z,4.73
2018-06-23T08:35:35.596Z,4.70
2018-06-23T08:38:39.213Z,4.37
2018-06-23T08:41:42.871Z,4.53
2018-06-23T08:44:46.690Z,3.80
2018-06-23T08:47:50.362Z,3.80
2018-06-23T08:50:54.040Z,3.87
2018-06-23T08:53:57.733Z,4.40
2018-06-23T08:57:01.459Z,4.10
2018-06-23T09:00:05.681Z,3.73
2018-06-23T09:03:09.368Z,3.67
2018-06-23T09:06:13.056Z,3.50
2018-06-23T09:09:16.672Z,3.60
2018-06-23T09:12:20.523Z,4.00
2018-06-23T09:15:24.236Z,4.17
2018-06-23T09:18:28.001Z,4.07
2018-06-23T09:21:31.627Z,3.97
2018-06-23T09:24:35.733Z,3.70
2018-06-23T09:27:39.458Z,3.93
2018-06-23T09:30:43.193Z,3.87
2018-06-23T09:33:46.866Z,3.93
2018-06-23T09:36:50.527Z,4.10
2018-06-23T09:39:55.180Z,3.67
2018-06-23T09:42:58.884Z,4.27
2018-06-23T09:46:02.614Z,4.90
2018-06-23T09:49:06.656Z,3.83
2018-06-23T09:52:10.428Z,4.27
2018-06-23T09:55:14.122Z,4.13
2018-06-23T09:58:17.766Z,3.93
2018-06-23T10:01:21.517Z,4.30
2018-06-23T10:04:25.307Z,4.10
2018-06-23T10:07:28.931Z,4.37
2018-06-23T10:10:32.668Z,4.70
2018-06-23T10:13:36.362Z,4.50
2018-06-23T10:16:40.067Z,4.70
2018-06-23T10:19:43.757Z,5.00
2018-06-23T10:22:47.443Z,4.90
2018-06-23T10:25:51.117Z,4.60
2018-06-23T10:28:54.874Z,5.40
2018-06-23T10:31:58.594Z,5.07
2018-06-23T10:35:02.554Z,4.43
2018-06-23T10:38:06.287Z,4.07
2018-06-23T10:41:09.969Z,4.73
2018-06-23T10:44:13.771Z,5.33
2018-06-23T10:47:17.512Z,4.70
2018-06-23T10:50:21.141Z,3.70
2018-06-23T10:53:24.851Z,4.47
2018-06-23T10:56:28.621Z,4.40
2018-06-23T10:59:32.409Z,4.17
2018-06-23T11:02:36.064Z,4.20
2018-06-23T11:05:39.733Z,4.13
2018-06-23T11:08:43.387Z,4.77
2018-06-23T11:11:47.088Z,5.03
2018-06-23T11:14:50.857Z,4.33
2018-06-23T11:17:54.713Z,3.93
2018-06-23T11:20:58.541Z,4.67
2018-06-23T11:24:02.268Z,4.50
2018-06-23T11:27:06.311Z,4.00
2018-06-23T11:30:09.886Z,4.73
2018-06-23T11:33:13.553Z,4.30
2018-06-23T11:36:17.218Z,3.73
2018-06-23T11:39:20.977Z,3.90
2018-06-23T11:42:24.603Z,4.40
2018-06-23T11:45:28.389Z,4.60
2018-06-23T11:48:32.090Z,3.90
2018-06-23T11:51:35.888Z,3.80
2018-06-23T11:54:39.564Z,5.57
2018-06-23T11:57:43.250Z,4.57
2018-06-23T12:00:46.982Z,5.50
2018-06-23T12:03:50.644Z,3.87
2018-06-23T12:06:54.759Z,4.03
2018-06-23T12:09:58.484Z,3.63
2018-06-23T12:13:02.174Z,3.53
2018-06-23T12:16:05.859Z,3.77
2018-06-23T12:19:09.544Z,3.93
2018-06-23T12:22:13.196Z,3.50
2018-06-23T12:25:16.991Z,3.67
2018-06-23T12:28:20.637Z,3.30
2018-06-23T12:31:24.393Z,3.90
2018-06-23T12:34:28.215Z,3.70
2018-06-23T12:37:31.914Z,3.53
2018-06-23T12:40:35.673Z,4.10
2018-06-23T12:43:39.363Z,3.53
2018-06-23T12:46:43.153Z,3.80
2018-06-23T12:49:46.818Z,3.77
2018-06-23T12:52:50.433Z,3.77
2018-06-23T12:55:54.193Z,3.80
2018-06-23T12:58:57.983Z,3.50
2018-06-23T13:02:01.650Z,3.43
2018-06-23T13:05:06.107Z,3.27
2018-06-23T13:08:09.784Z,3.57
2018-06-23T13:11:13.582Z,3.63
2018-06-23T13:14:17.341Z,4.47
2018-06-23T13:17:21.053Z,3.60
2018-06-23T13:20:24.903Z,3.63
2018-06-23T13:23:28.764Z,3.70
2018-06-23T13:26:32.599Z,3.37
2018-06-23T13:29:36.472Z,3.37
2018-06-23T13:32:40.285Z,3.40
2018-06-23T13:35:43.978Z,3.37
2018-06-23T13:38:47.751Z,3.70
2018-06-23T13:41:51.456Z,3.37
2018-06-23T13:44:55.179Z,3.87
2018-06-23T13:47:58.865Z,3.33
2018-06-23T13:51:02.679Z,3.40
2018-06-23T13:54:06.365Z,3.77
2018-06-23T13:57:10.716Z,3.70
2018-06-23T14:00:14.395Z,3.30
2018-06-23T14:03:18.069Z,3.30
2018-06-23T14:06:21.950Z,3.17
2018-06-23T14:09:25.680Z,3.13
2018-06-23T14:12:29.333Z,3.50
2018-06-23T14:15:33.190Z,3.20
2018-06-23T14:18:36.906Z,3.90
2018-06-23T14:21:40.621Z,3.03
2018-06-23T14:24:44.297Z,4.07
2018-06-23T14:27:48.049Z,2.77
2018-06-23T14:30:51.816Z,3.40
2018-06-23T14:33:55.481Z,2.93
2018-06-23T14:36:59.159Z,3.13
2018-06-23T14:40:03.043Z,3.07
2018-06-23T14:43:06.626Z,3.80
2018-06-23T14:46:10.377Z,3.30
2018-06-23T14:49:14.130Z,3.13
2018-06-23T14:52:17.833Z,3.60
2018-06-23T14:55:21.492Z,3.33
2018-06-23T14:58:25.240Z,3.33
2018-06-23T15:01:28.951Z,3.00
2018-06-23T15:04:32.606Z,3.20
2018-06-23T15:07:36.245Z,3.17
2018-06-23T15:10:51.235Z,3.30
2018-06-23T15:13:54.890Z,3.30
2018-06-23T15:16:58.506Z,3.00
2018-06-23T15:20:02.217Z,2.97
2018-06-23T15:23:05.912Z,2.90
2018-06-23T15:26:09.611Z,3.20
2018-06-23T15:29:13.285Z,3.20
2018-06-23T15:32:16.985Z,3.83
2018-06-23T15:35:20.765Z,3.70
2018-06-23T15:38:24.491Z,3.60
2018-06-23T15:41:28.177Z,3.70
2018-06-23T15:44:31.866Z,3.23
2018-06-23T15:47:35.554Z,3.30
2018-06-23T15:50:39.225Z,3.60
2018-06-23T15:53:42.873Z,3.00
2018-06-23T15:56:46.512Z,4.47
2018-06-23T15:59:50.284Z,3.30
2018-06-23T16:02:54.057Z,3.83
2018-06-23T16:05:57.786Z,3.20
2018-06-23T16:09:01.545Z,3.53
2018-06-23T16:12:05.325Z,3.90
2018-06-23T16:15:08.955Z,3.60
2018-06-23T16:18:12.611Z,3.73
2018-06-23T16:21:16.349Z,3.70
2018-06-23T16:24:20.185Z,3.70
2018-06-23T16:27:23.918Z,3.57
2018-06-23T16:30:27.657Z,4.00
2018-06-23T16:33:31.327Z,3.83
2018-06-23T16:36:35.106Z,3.80
2018-06-23T16:39:38.911Z,3.77
2018-06-23T16:42:42.628Z,4.37
2018-06-23T16:45:46.296Z,4.20
2018-06-23T16:48:50.087Z,3.57
2018-06-23T16:51:53.940Z,3.50
2018-06-23T16:54:57.820Z,3.87
2018-06-23T16:58:01.399Z,4.40
2018-06-23T17:01:05.132Z,3.80
2018-06-23T17:04:08.846Z,3.77
2018-06-23T17:07:12.516Z,4.37
2018-06-23T17:10:16.262Z,4.33
2018-06-23T17:13:20.067Z,4.43
2018-06-23T17:16:23.710Z,4.67
2018-06-23T17:19:27.494Z,4.70
2018-06-23T17:22:31.188Z,4.60
2018-06-23T17:25:35.177Z,4.77
2018-06-23T17:28:38.918Z,4.53
2018-06-23T17:31:42.517Z,3.90
2018-06-23T17:34:46.247Z,4.20
2018-06-23T17:37:49.829Z,4.30
2018-06-23T17:40:53.482Z,3.90
2018-06-23T17:43:57.298Z,4.60
2018-06-23T17:47:00.940Z,3.80
2018-06-23T17:50:05.006Z,3.93
2018-06-23T17:53:08.680Z,3.87
2018-06-23T17:56:12.452Z,3.83
2018-06-23T17:59:16.105Z,4.33
2018-06-23T18:02:19.851Z,4.67
2018-06-23T18:05:23.466Z,4.40
2018-06-23T18:08:28.327Z,4.17
2018-06-23T18:11:32.999Z,4.33
2018-06-23T18:14:36.707Z,3.73
2018-06-23T18:17:40.451Z,4.03
2018-06-23T18:20:44.172Z,4.33
2018-06-23T18:23:50.927Z,4.17
2018-06-23T18:26:54.582Z,3.80
2018-06-23T18:29:58.328Z,4.10
2018-06-23T18:33:01.973Z,3.97
2018-06-23T18:36:05.724Z,4.00
2018-06-23T18:39:10.764Z,4.00
2018-06-23T18:42:14.513Z,4.43
2018-06-23T18:45:18.163Z,4.53
2018-06-23T18:48:21.937Z,4.00
2018-06-23T18:51:25.814Z,3.83
2018-06-23T18:54:29.514Z,4.30
2018-06-23T18:57:33.386Z,3.90
2018-06-23T19:00:37.258Z,3.63
2018-06-23T19:03:41.101Z,3.90
2018-06-23T19:06:45.157Z,4.13
2018-06-23T19:09:49.082Z,4.50
2018-06-23T19:12:52.768Z,3.77
2018-06-23T19:15:56.489Z,4.30
2018-06-23T19:19:00.181Z,3.80
2018-06-23T19:22:03.892Z,3.80
2018-06-23T19:25:09.064Z,3.90
2018-06-23T19:28:12.782Z,3.33
2018-06-23T19:31:16.418Z,3.60
2018-06-23T19:34:20.143Z,3.43
2018-06-23T19:37:23.699Z,3.00
2018-06-23T19:40:27.384Z,3.30
2018-06-23T19:43:31.026Z,2.87
2018-06-23T19:46:34.678Z,3.10
2018-06-23T19:49:39.652Z,2.90
2018-06-23T19:52:43.348Z,3.33
2018-06-23T19:55:47.039Z,3.53
2018-06-23T19:58:50.800Z,3.23
2018-06-23T20:01:54.640Z,3.40
2018-06-23T20:04:58.223Z,3.00
2018-06-23T20:08:01.908Z,3.30
2018-06-23T20:11:05.622Z,3.20
2018-06-23T20:14:09.544Z,3.53
2018-06-23T20:17:13.148Z,3.27
2018-06-23T20:20:16.891Z,3.57
2018-06-23T20:23:20.545Z,4.03
2018-06-23T20:26:24.410Z,3.60
2018-06-23T20:29:28.113Z,3.40
2018-06-23T20:32:31.876Z,3.10
2018-06-23T20:35:35.728Z,3.10
2018-06-23T20:38:39.836Z,3.60
2018-06-23T20:41:43.522Z,3.60
2018-06-23T20:44:47.133Z,3.73
2018-06-23T20:47:50.890Z,3.93
2018-06-23T20:50:54.615Z,3.23
2018-06-23T20:53:58.437Z,3.20
2018-06-23T20:57:02.109Z,3.83
2018-06-23T21:00:05.848Z,3.40
2018-06-23T21:03:09.601Z,3.80
2018-06-23T21:06:13.377Z,3.57
2018-06-23T21:09:17.064Z,3.67
2018-06-23T21:12:20.708Z,4.07
2018-06-23T21:15:24.550Z,4.17
2018-06-23T21:18:28.299Z,3.50
2018-06-23T21:21:32.188Z,3.70
2018-06-23T21:24:36.009Z,3.80
2018-06-23T21:27:39.804Z,3.60
2018-06-23T21:30:43.593Z,3.90
2018-06-23T21:33:47.380Z,4.03
2018-06-23T21:36:51.050Z,3.70
2018-06-23T21:39:54.785Z,3.73
2018-06-23T21:42:58.385Z,3.40
2018-06-23T21:46:02.224Z,3.43
2018-06-23T21:49:06.129Z,3.50
2018-06-23T21:52:09.910Z,3.47
2018-06-23T21:55:13.895Z,3.67
2018-06-23T21:58:17.581Z,3.53
2018-06-23T22:01:21.476Z,3.40
2018-06-23T22:04:25.155Z,3.57
2018-06-23T22:07:28.721Z,3.50
2018-06-23T22:10:32.366Z,3.60
2018-06-23T22:13:36.025Z,3.30
2018-06-23T22:16:41.046Z,3.97
2018-06-23T22:19:44.727Z,3.60
2018-06-23T22:22:54.972Z,3.83
2018-06-23T22:25:58.866Z,3.40
2018-06-23T22:29:02.589Z,3.83
2018-06-23T22:32:06.235Z,3.40
2018-06-23T22:35:10.391Z,4.30
2018-06-23T22:38:14.131Z,4.10
2018-06-23T22:41:18.831Z,3.60
2018-06-23T22:44:28.764Z,3.83
2018-06-23T22:47:32.521Z,4.10
2018-06-23T22:50:36.347Z,3.83
2018-06-23T22:53:40.052Z,3.83
2018-06-23T22:56:43.712Z,4.17
2018-06-23T22:59:47.314Z,4.10
2018-06-23T23:02:51.211Z,3.70
2018-06-23T23:05:54.902Z,4.20
2018-06-23T23:08:58.542Z,3.90
2018-06-23T23:12:02.574Z,4.23
2018-06-23T23:15:06.557Z,4.20
2018-06-23T23:18:10.281Z,4.33
2018-06-23T23:21:13.889Z,4.00
2018-06-23T23:24:17.730Z,3.70
2018-06-23T23:27:21.536Z,4.03
2018-06-23T23:30:25.317Z,4.23
2018-06-23T23:33:28.951Z,3.50
2018-06-23T23:36:32.816Z,4.87
2018-06-23T23:39:36.395Z,4.03
2018-06-23T23:42:40.045Z,4.30
2018-06-23T23:45:43.775Z,4.23
2018-06-23T23:48:47.447Z,4.10
2018-06-23T23:51:51.220Z,3.73
2018-06-23T23:54:54.949Z,4.50
2018-06-23T23:57:58.693Z,4.00
